logo
Search for airport 
image banner adimage banner adimage banner ad
image banner ad

ED2164 - Leipzig Uniklinikum Zentrallager - Ukl 2

Located in Leipzig, Germany

ICAO - , IATA -

Data provided by Airmate  

General information

Coordinates: N51°19'45" E12°23'20"
Elevation is 439 feet MSL.
 
View others Airports in Saxony

Operational data

Special qualification required
Current time UTC:
Current local time:
Weather at : EDDP - Leipzig/Halle ( 15 km )
METAR: EDDP 242020Z AUTO 11006KT CAVOK 11/08 Q1028 NOSIG
TAF: TAF EDDP 241700Z 2418/2518 12006KT CAVOK
View NOTAMs / SUP AIP / TFR affecting this airport [VIEW]
Communications frequencies: [VIEW]

Runways:

Airport contact information

Address: Leipzig Germany

Satellite view of ED2164